Time;durP1;ratioP1;P1;durP2;ratioP2;P2;SDS_P1;SDS_P2;PMS_P1;PMS_P2;Temp;Humidity;BMP_temperature;BMP_pressure;BME280_temperature;BME280_humidity;BME280_pressure;Samples;Min_cycle;Max_cycle;Signal;HPM_P1;HPM_P2
2023/06/03 00:02:20;;;;;;;6.45;2.42;;;16.50;46.40;;;;;;5002341;28;20062;-37
2023/06/03 00:04:48;;;;;;;4.10;2.10;;;16.40;46.40;;;;;;5001758;28;20062;-38
2023/06/03 00:07:16;;;;;;;3.30;2.03;;;16.40;46.50;;;;;;4999459;28;20417;-41
2023/06/03 00:09:43;;;;;;;8.77;2.60;;;16.40;46.60;;;;;;5000219;28;20050;-37
2023/06/03 00:12:11;;;;;;;6.28;2.95;;;16.40;46.60;;;;;;5001477;28;20062;-37
2023/06/03 00:14:38;;;;;;;7.30;2.40;;;16.30;46.60;;;;;;4998195;28;20065;-37
2023/06/03 00:17:05;;;;;;;4.40;2.30;;;16.30;46.60;;;;;;5000734;28;20050;-37
2023/06/03 00:19:33;;;;;;;4.47;2.25;;;16.30;46.70;;;;;;5001152;28;20509;-37
2023/06/03 00:22:00;;;;;;;4.97;2.08;;;16.20;46.80;;;;;;4998616;28;20049;-36
2023/06/03 00:24:28;;;;;;;5.30;2.20;;;16.20;46.80;;;;;;5000386;28;20508;-38
2023/06/03 00:26:56;;;;;;;4.38;2.50;;;16.20;47.00;;;;;;4998194;28;20058;-39
2023/06/03 00:29:23;;;;;;;7.40;3.17;;;16.20;47.00;;;;;;5001862;28;20133;-39
2023/06/03 00:31:50;;;;;;;6.32;2.70;;;16.10;47.20;;;;;;5001803;28;20057;-37
2023/06/03 00:34:17;;;;;;;6.95;2.58;;;16.10;47.30;;;;;;5000844;28;20057;-38
2023/06/03 00:36:45;;;;;;;4.57;2.25;;;16.10;47.20;;;;;;4998619;28;20054;-40
2023/06/03 00:39:12;;;;;;;4.68;2.38;;;16.00;47.30;;;;;;5000259;28;20054;-38
2023/06/03 00:41:41;;;;;;;5.20;2.75;;;16.00;47.30;;;;;;5000248;28;20046;-36
2023/06/03 00:44:08;;;;;;;7.15;2.88;;;16.00;47.40;;;;;;4999725;28;20437;-43
2023/06/03 00:46:35;;;;;;;6.20;2.03;;;16.00;47.50;;;;;;5000601;28;20054;-46
2023/06/03 00:49:03;;;;;;;4.38;2.40;;;15.90;47.50;;;;;;4997336;28;20054;-42
2023/06/03 00:51:32;;;;;;;5.13;2.20;;;15.90;47.50;;;;;;4998394;28;20046;-42
2023/06/03 00:54:00;;;;;;;6.43;2.90;;;15.90;47.60;;;;;;5000367;28;20058;-47
2023/06/03 00:56:28;;;;;;;5.35;2.40;;;15.90;47.70;;;;;;5000693;28;20050;-43
2023/06/03 00:58:56;;;;;;;5.50;2.42;;;15.90;47.70;;;;;;4999898;28;20061;-45
2023/06/03 01:01:24;;;;;;;5.50;2.72;;;15.80;47.80;;;;;;5021035;23;20049;-43
2023/06/03 01:03:51;;;;;;;5.43;2.40;;;15.80;47.80;;;;;;4996304;28;20379;-43
2023/06/03 01:06:27;;;;;;;3.38;2.30;;;15.80;47.90;;;;;;5000628;28;20481;-45
2023/06/03 01:09:02;;;;;;;5.45;2.30;;;15.80;47.90;;;;;;4997837;28;20512;-46
2023/06/03 01:11:40;;;;;;;4.85;2.33;;;15.80;47.90;;;;;;4997435;28;20145;-46
2023/06/03 01:14:18;;;;;;;4.15;2.30;;;15.70;47.90;;;;;;4999058;28;20066;-43
2023/06/03 01:16:48;;;;;;;6.60;2.53;;;15.70;47.90;;;;;;4999978;28;20054;-43
2023/06/03 01:19:34;;;;;;;5.00;2.17;;;15.70;47.90;;;;;;4998160;28;20057;-43
2023/06/03 01:22:03;;;;;;;6.38;2.47;;;15.70;48.00;;;;;;4993379;28;20657;-44
2023/06/03 01:24:32;;;;;;;2.92;2.05;;;15.70;48.00;;;;;;4999579;28;20057;-47
2023/06/03 01:26:59;;;;;;;4.28;2.33;;;15.60;48.10;;;;;;4998624;28;20425;-49
2023/06/03 01:29:27;;;;;;;3.50;2.13;;;15.60;48.20;;;;;;5001372;28;20064;-44
2023/06/03 01:31:57;;;;;;;6.57;2.55;;;15.60;48.20;;;;;;4997390;28;20060;-46
2023/06/03 01:34:25;;;;;;;6.35;2.55;;;15.50;48.20;;;;;;4997960;28;20053;-45
2023/06/03 01:36:53;;;;;;;5.50;2.83;;;15.50;48.20;;;;;;4999166;28;20065;-44
2023/06/03 01:39:20;;;;;;;7.38;2.40;;;15.50;48.20;;;;;;5000907;28;20066;-44
2023/06/03 01:41:52;;;;;;;4.68;2.30;;;15.50;48.30;;;;;;5005633;28;20409;-46
2023/06/03 01:44:19;;;;;;;7.30;2.50;;;15.50;48.40;;;;;;5005532;28;20054;-43
2023/06/03 01:46:47;;;;;;;3.53;2.13;;;15.50;48.50;;;;;;5003385;28;20148;-43
2023/06/03 01:49:15;;;;;;;5.20;2.25;;;15.40;48.40;;;;;;5005004;28;21000;-44
2023/06/03 01:51:43;;;;;;;8.07;3.03;;;15.40;48.50;;;;;;5002576;28;20444;-45
2023/06/03 01:54:10;;;;;;;6.43;2.80;;;15.40;48.60;;;;;;5004492;28;20069;-44
2023/06/03 01:56:37;;;;;;;4.25;2.78;;;15.40;48.70;;;;;;5005301;28;20053;-43
2023/06/03 01:59:06;;;;;;;8.98;2.78;;;15.40;48.60;;;;;;5005085;28;20054;-45
2023/06/03 02:01:36;;;;;;;4.35;2.40;;;15.40;48.80;;;;;;5003732;28;20531;-45
2023/06/03 02:04:03;;;;;;;8.30;2.83;;;15.40;48.80;;;;;;5004758;28;20054;-43
2023/06/03 02:06:30;;;;;;;8.25;3.35;;;15.40;48.90;;;;;;4990274;28;20394;-47
2023/06/03 02:08:57;;;;;;;6.05;2.55;;;15.40;48.90;;;;;;4997352;28;20524;-44
2023/06/03 02:11:25;;;;;;;6.65;2.58;;;15.40;48.90;;;;;;4985040;28;20061;-43
2023/06/03 02:13:52;;;;;;;5.00;2.35;;;15.40;49.00;;;;;;4984130;28;20058;-44
2023/06/03 02:16:21;;;;;;;8.48;2.88;;;15.40;49.00;;;;;;4984171;28;20058;-44
2023/06/03 02:18:48;;;;;;;7.43;2.45;;;15.40;49.10;;;;;;4983911;28;20506;-45
2023/06/03 02:21:16;;;;;;;6.25;2.75;;;15.30;49.00;;;;;;4983314;28;20051;-44
2023/06/03 02:23:43;;;;;;;7.05;3.13;;;15.30;49.00;;;;;;4984273;28;20065;-43
2023/06/03 02:26:13;;;;;;;7.82;2.88;;;15.30;49.10;;;;;;4982674;28;20073;-44
2023/06/03 02:28:40;;;;;;;6.32;2.60;;;15.30;49.10;;;;;;4982337;28;20886;-44
2023/06/03 02:31:08;;;;;;;7.35;3.03;;;15.30;49.00;;;;;;4981110;28;20065;-43
2023/06/03 02:33:36;;;;;;;6.57;2.45;;;15.30;49.10;;;;;;4984095;28;20065;-45
2023/06/03 02:36:04;;;;;;;4.85;2.67;;;15.30;49.10;;;;;;4983589;28;20384;-45
2023/06/03 02:38:32;;;;;;;7.60;3.08;;;15.30;49.10;;;;;;4984256;28;20050;-48
2023/06/03 02:40:59;;;;;;;5.85;2.58;;;15.30;49.30;;;;;;4983797;28;20061;-43
2023/06/03 02:43:26;;;;;;;4.75;2.50;;;15.30;49.20;;;;;;4979071;28;20054;-45
2023/06/03 02:45:53;;;;;;;6.10;2.65;;;15.30;49.20;;;;;;4981304;28;20050;-47
2023/06/03 02:48:21;;;;;;;8.60;2.53;;;15.20;49.10;;;;;;4983567;28;20445;-48
2023/06/03 02:50:50;;;;;;;3.85;2.22;;;15.30;49.30;;;;;;4984748;28;20071;-47
2023/06/03 02:53:18;;;;;;;8.07;3.00;;;15.20;49.20;;;;;;4980950;28;20061;-46
2023/06/03 02:55:46;;;;;;;6.95;2.70;;;15.20;49.30;;;;;;4983212;28;20050;-45
2023/06/03 02:58:15;;;;;;;3.45;2.30;;;15.20;49.30;;;;;;4983235;28;20061;-47
2023/06/03 03:00:43;;;;;;;6.45;2.63;;;15.20;49.30;;;;;;4982114;28;20058;-44
2023/06/03 03:03:10;;;;;;;3.72;2.40;;;15.20;49.30;;;;;;4982778;28;20410;-44
2023/06/03 03:05:38;;;;;;;5.43;2.75;;;15.20;49.30;;;;;;4984817;28;20062;-44
2023/06/03 03:08:06;;;;;;;4.45;2.30;;;15.10;49.30;;;;;;4982008;28;20054;-45
2023/06/03 03:10:34;;;;;;;6.70;2.50;;;15.10;49.30;;;;;;4981543;28;20046;-43
2023/06/03 03:13:01;;;;;;;4.68;2.13;;;15.10;49.20;;;;;;4982606;28;20058;-43
2023/06/03 03:15:28;;;;;;;6.80;2.47;;;15.10;49.10;;;;;;4983106;28;20050;-43
2023/06/03 03:17:55;;;;;;;3.65;2.08;;;15.10;49.10;;;;;;4982990;28;20430;-44
2023/06/03 03:20:24;;;;;;;6.75;2.70;;;15.10;49.00;;;;;;4983499;28;20065;-43
2023/06/03 03:22:52;;;;;;;6.03;2.72;;;15.10;49.00;;;;;;4981296;28;20066;-43
2023/06/03 03:25:21;;;;;;;4.90;2.40;;;15.10;48.90;;;;;;4980188;28;20150;-47
2023/06/03 03:27:48;;;;;;;5.47;2.30;;;15.10;48.90;;;;;;4981674;28;20061;-45
2023/06/03 03:30:16;;;;;;;4.78;2.53;;;15.10;48.90;;;;;;4982808;28;20524;-45
2023/06/03 03:32:43;;;;;;;6.13;2.28;;;15.10;48.80;;;;;;4982610;28;20046;-45
2023/06/03 03:35:14;;;;;;;4.72;1.90;;;15.10;48.70;;;;;;4978523;28;20054;-44
2023/06/03 03:37:41;;;;;;;7.70;2.58;;;15.10;48.60;;;;;;4979111;28;20054;-45
2023/06/03 03:40:17;;;;;;;4.43;1.73;;;15.10;48.50;;;;;;4979014;28;20494;-47
2023/06/03 03:42:50;;;;;;;3.67;1.75;;;15.10;48.40;;;;;;4976269;28;20047;-45
2023/06/03 03:45:19;;;;;;;7.03;2.20;;;15.10;48.40;;;;;;4977890;28;20054;-49
2023/06/03 03:47:49;;;;;;;5.82;2.17;;;15.10;48.30;;;;;;4980968;28;20383;-44
2023/06/03 03:50:38;;;;;;;4.13;1.40;;;15.10;48.20;;;;;;4980821;28;20061;-45
2023/06/03 03:53:07;;;;;;;4.05;2.00;;;15.10;48.10;;;;;;4974704;28;20057;-43
2023/06/03 03:55:40;;;;;;;2.40;1.67;;;15.10;48.00;;;;;;4970949;28;21016;-48
2023/06/03 03:58:33;;;;;;;4.88;1.73;;;15.20;48.00;;;;;;4972694;28;20532;-46
2023/06/03 04:01:09;;;;;;;6.18;2.33;;;15.10;47.80;;;;;;4972969;28;20058;-46
2023/06/03 04:03:40;;;;;;;3.85;1.80;;;15.20;47.90;;;;;;4970084;28;20076;-47
2023/06/03 04:06:08;;;;;;;3.67;1.70;;;15.10;47.70;;;;;;4978759;28;20506;-47
2023/06/03 04:08:39;;;;;;;2.78;1.45;;;15.10;47.60;;;;;;4977655;28;20058;-47
2023/06/03 04:11:08;;;;;;;6.15;1.75;;;15.20;47.70;;;;;;4982843;28;20050;-44
2023/06/03 04:13:40;;;;;;;3.22;2.05;;;15.20;47.70;;;;;;4981688;28;20054;-44
2023/06/03 04:16:10;;;;;;;4.35;1.63;;;15.20;47.70;;;;;;4981996;28;20050;-44
2023/06/03 04:18:40;;;;;;;4.45;1.60;;;15.20;47.50;;;;;;4977913;28;20058;-44
2023/06/03 04:21:09;;;;;;;4.45;1.65;;;15.20;47.50;;;;;;4972045;28;20413;-46
2023/06/03 04:23:37;;;;;;;3.47;1.90;;;15.20;47.40;;;;;;4972591;28;20065;-44
2023/06/03 04:26:04;;;;;;;2.60;1.60;;;15.20;47.40;;;;;;4971318;28;21070;-45
2023/06/03 04:28:31;;;;;;;2.30;1.70;;;15.20;47.40;;;;;;4972680;28;20050;-46
2023/06/03 04:31:00;;;;;;;3.67;1.60;;;15.20;47.40;;;;;;4974815;28;20493;-44
2023/06/03 04:33:27;;;;;;;6.43;2.53;;;15.20;47.30;;;;;;4980339;28;20061;-44
2023/06/03 04:35:55;;;;;;;7.13;2.80;;;15.20;47.30;;;;;;4984215;28;20058;-51
2023/06/03 04:38:22;;;;;;;9.05;4.68;;;15.20;47.40;;;;;;4980589;28;20069;-49
2023/06/03 04:40:50;;;;;;;4.45;2.63;;;15.20;47.30;;;;;;4980542;28;20057;-49
2023/06/03 04:43:19;;;;;;;3.00;1.85;;;15.20;47.20;;;;;;4980578;28;20410;-48
2023/06/03 04:45:49;;;;;;;4.05;2.00;;;15.20;47.10;;;;;;4980143;28;20061;-46
2023/06/03 04:48:22;;;;;;;3.75;1.52;;;15.20;47.00;;;;;;4977722;28;20065;-48
2023/06/03 04:50:50;;;;;;;3.70;1.17;;;15.30;47.00;;;;;;4979812;28;20058;-45
2023/06/03 04:53:18;;;;;;;3.35;1.65;;;15.30;47.00;;;;;;4968613;28;20049;-45
2023/06/03 04:55:45;;;;;;;3.63;1.63;;;15.30;47.00;;;;;;4971483;28;20073;-46
2023/06/03 04:58:13;;;;;;;3.95;1.58;;;15.30;47.00;;;;;;4969331;28;20137;-45
2023/06/03 05:00:41;;;;;;;1.27;0.90;;;15.30;46.90;;;;;;4974065;28;20157;-44
2023/06/03 05:03:09;;;;;;;3.70;1.50;;;15.30;46.80;;;;;;4974532;28;20517;-46
2023/06/03 05:05:43;;;;;;;3.97;1.60;;;15.30;46.60;;;;;;4971785;28;20076;-45
2023/06/03 05:08:10;;;;;;;3.85;1.23;;;15.40;46.40;;;;;;4974364;28;20054;-45
2023/06/03 05:10:38;;;;;;;4.80;1.52;;;15.40;46.40;;;;;;4978077;28;20054;-49
2023/06/03 05:13:06;;;;;;;5.15;1.30;;;15.40;46.40;;;;;;4970692;28;20557;-47
2023/06/03 05:15:34;;;;;;;2.10;1.20;;;15.40;46.40;;;;;;4976181;28;20054;-44
2023/06/03 05:18:01;;;;;;;2.30;1.23;;;15.50;46.30;;;;;;4977002;28;20072;-45
2023/06/03 05:20:29;;;;;;;3.17;1.08;;;15.50;46.20;;;;;;4970544;28;20057;-43
2023/06/03 05:22:58;;;;;;;2.05;1.08;;;15.50;46.00;;;;;;4979282;28;20081;-45
2023/06/03 05:25:25;;;;;;;1.75;1.10;;;15.50;45.90;;;;;;4976298;28;20058;-43
2023/06/03 05:27:53;;;;;;;2.58;1.42;;;15.60;45.90;;;;;;4974169;28;20054;-45
2023/06/03 05:30:21;;;;;;;5.90;1.17;;;15.60;45.80;;;;;;4977015;28;20046;-46
2023/06/03 05:32:48;;;;;;;3.67;1.50;;;15.60;45.80;;;;;;4972726;28;20073;-45
2023/06/03 05:35:15;;;;;;;3.55;1.50;;;15.70;45.90;;;;;;4973065;28;20057;-49
2023/06/03 05:37:44;;;;;;;5.18;1.35;;;15.70;45.70;;;;;;4977010;28;20054;-48
2023/06/03 05:40:13;;;;;;;2.78;1.10;;;15.80;45.70;;;;;;4977674;28;20077;-53
2023/06/03 05:42:40;;;;;;;2.83;1.00;;;15.80;45.70;;;;;;4977027;28;20906;-48
2023/06/03 05:45:08;;;;;;;2.42;1.13;;;15.80;45.60;;;;;;4978850;28;20065;-54
2023/06/03 05:47:35;;;;;;;2.17;1.08;;;15.90;45.50;;;;;;4975759;28;20054;-49
2023/06/03 05:50:03;;;;;;;2.45;0.90;;;15.90;45.50;;;;;;4975223;28;20414;-52
2023/06/03 05:52:30;;;;;;;3.50;1.40;;;16.00;45.50;;;;;;4976576;28;20050;-49
2023/06/03 05:54:57;;;;;;;5.15;1.00;;;16.00;45.50;;;;;;4972393;28;20403;-52
2023/06/03 05:57:29;;;;;;;4.13;1.15;;;16.10;45.40;;;;;;4974097;28;20057;-48
2023/06/03 05:59:56;;;;;;;3.10;1.02;;;16.10;45.20;;;;;;4977632;28;20995;-48
2023/06/03 06:02:23;;;;;;;3.15;1.90;;;16.20;45.20;;;;;;4970547;28;20054;-47
2023/06/03 06:04:50;;;;;;;1.38;0.80;;;16.20;45.00;;;;;;4971167;28;20050;-48
2023/06/03 06:07:18;;;;;;;1.58;1.10;;;16.30;44.90;;;;;;4973559;28;20058;-47
2023/06/03 06:09:47;;;;;;;2.05;0.82;;;16.40;44.80;;;;;;4968819;28;20076;-48
2023/06/03 06:12:14;;;;;;;5.68;1.10;;;16.40;44.60;;;;;;4979612;28;20050;-49
2023/06/03 06:14:43;;;;;;;3.22;1.48;;;16.40;44.60;;;;;;4977206;28;20057;-48
2023/06/03 06:17:10;;;;;;;3.45;1.02;;;16.50;44.70;;;;;;4970223;28;20517;-49
2023/06/03 06:19:38;;;;;;;1.77;1.08;;;16.60;44.60;;;;;;4976093;28;20509;-49
2023/06/03 06:22:05;;;;;;;2.47;0.88;;;16.60;44.60;;;;;;4977160;28;20138;-49
2023/06/03 06:24:33;;;;;;;1.73;0.85;;;16.70;44.60;;;;;;4981232;28;20513;-47
2023/06/03 06:27:00;;;;;;;2.10;0.90;;;16.70;45.00;;;;;;4981487;28;20062;-48
2023/06/03 06:29:28;;;;;;;2.13;1.00;;;16.80;44.40;;;;;;4981384;28;20050;-46
2023/06/03 06:31:56;;;;;;;2.42;0.90;;;16.90;44.40;;;;;;4977599;28;20065;-47
2023/06/03 06:34:29;;;;;;;2.15;0.90;;;17.00;44.20;;;;;;4979177;28;20418;-48
2023/06/03 06:36:57;;;;;;;3.22;0.93;;;17.00;44.00;;;;;;4978436;28;20053;-48
2023/06/03 06:39:46;;;;;;;3.08;0.90;;;17.10;43.90;;;;;;4981041;28;20477;-49
2023/06/03 06:42:16;;;;;;;1.73;0.98;;;17.20;43.60;;;;;;4971258;28;20054;-48
2023/06/03 06:44:46;;;;;;;2.38;0.90;;;17.20;43.60;;;;;;4981459;28;20065;-44
2023/06/03 06:47:20;;;;;;;1.77;0.70;;;17.30;43.60;;;;;;4978941;28;20062;-43
2023/06/03 06:49:48;;;;;;;2.63;0.80;;;17.40;43.50;;;;;;4980295;28;20054;-43
2023/06/03 06:52:16;;;;;;;3.97;0.90;;;17.40;43.60;;;;;;4972527;28;20058;-46
2023/06/03 06:54:43;;;;;;;1.88;1.00;;;17.40;43.50;;;;;;4979399;28;20545;-46
2023/06/03 06:57:10;;;;;;;3.10;1.42;;;17.50;43.40;;;;;;4979655;28;20062;-45
2023/06/03 06:59:38;;;;;;;0.98;0.75;;;17.50;43.10;;;;;;4981316;28;20054;-43
2023/06/03 07:02:05;;;;;;;3.08;1.10;;;17.60;43.20;;;;;;4971237;28;20050;-43
2023/06/03 07:04:34;;;;;;;6.05;0.95;;;17.70;43.30;;;;;;4980909;28;20058;-42
2023/06/03 07:07:01;;;;;;;1.95;1.02;;;17.70;43.10;;;;;;4980283;28;20238;-43
2023/06/03 07:09:28;;;;;;;2.30;1.00;;;17.80;42.90;;;;;;4980701;28;20425;-45
2023/06/03 07:11:57;;;;;;;2.85;1.20;;;17.80;42.90;;;;;;4978937;28;20077;-43
2023/06/03 07:14:24;;;;;;;2.92;1.13;;;17.90;42.80;;;;;;4981809;28;20498;-45
2023/06/03 07:16:52;;;;;;;4.25;0.90;;;18.00;42.80;;;;;;4978518;28;20105;-43
2023/06/03 07:19:19;;;;;;;2.05;1.00;;;18.00;42.60;;;;;;4974332;28;20062;-47
2023/06/03 07:21:47;;;;;;;1.35;0.82;;;18.10;42.50;;;;;;4978382;28;20058;-43
2023/06/03 07:24:16;;;;;;;4.10;0.80;;;18.10;42.30;;;;;;4979031;28;20050;-43
2023/06/03 07:26:45;;;;;;;1.88;0.85;;;18.20;42.40;;;;;;4978854;28;20066;-45
2023/06/03 07:29:12;;;;;;;1.85;0.90;;;18.30;42.40;;;;;;4978395;28;20058;-43
2023/06/03 07:31:40;;;;;;;29.73;13.10;;;18.30;42.40;;;;;;4976202;28;20061;-43
2023/06/03 07:34:08;;;;;;;13.07;5.70;;;18.30;42.40;;;;;;4980017;28;20094;-43
2023/06/03 07:36:35;;;;;;;7.97;2.63;;;18.40;42.30;;;;;;4977201;28;20058;-43
2023/06/03 07:39:06;;;;;;;2.83;1.63;;;18.50;42.20;;;;;;4979983;28;20061;-43
2023/06/03 07:41:41;;;;;;;2.85;1.50;;;18.50;42.20;;;;;;4976265;28;20469;-44
2023/06/03 07:44:10;;;;;;;2.47;1.05;;;18.60;42.10;;;;;;4979643;28;20133;-44
2023/06/03 07:46:43;;;;;;;1.83;0.95;;;18.60;42.00;;;;;;4978708;28;20061;-43
2023/06/03 07:49:12;;;;;;;3.22;1.08;;;18.70;42.00;;;;;;4977609;28;20050;-43
2023/06/03 07:51:44;;;;;;;2.28;1.05;;;18.70;42.00;;;;;;4979387;28;20050;-44
2023/06/03 07:54:13;;;;;;;3.58;1.00;;;18.80;41.80;;;;;;4979927;28;20054;-43
2023/06/03 07:56:41;;;;;;;5.45;1.00;;;18.80;41.70;;;;;;4975007;28;20407;-43
2023/06/03 07:59:11;;;;;;;1.50;0.95;;;18.80;41.50;;;;;;4977133;28;20065;-43
2023/06/03 08:01:38;;;;;;;6.57;1.23;;;18.90;41.40;;;;;;4976574;28;20066;-43
2023/06/03 08:04:18;;;;;;;5.00;1.10;;;19.00;41.40;;;;;;4974521;28;20057;-42
2023/06/03 08:06:46;;;;;;;6.90;1.40;;;19.00;41.30;;;;;;4976902;28;20055;-43
2023/06/03 08:09:25;;;;;;;1.90;1.00;;;19.10;41.40;;;;;;4979653;28;20069;-42
2023/06/03 08:11:52;;;;;;;1.80;1.02;;;19.10;41.20;;;;;;4980548;28;20058;-46
2023/06/03 08:14:21;;;;;;;4.05;1.27;;;19.20;41.30;;;;;;4979802;28;20050;-42
2023/06/03 08:16:48;;;;;;;2.60;1.17;;;19.20;41.40;;;;;;4979207;28;20058;-43
2023/06/03 08:19:18;;;;;;;3.42;1.05;;;19.30;41.30;;;;;;4977519;28;20065;-44
2023/06/03 08:21:45;;;;;;;4.60;1.17;;;19.30;41.20;;;;;;4978492;28;20561;-44
2023/06/03 08:24:13;;;;;;;2.22;1.10;;;19.40;41.30;;;;;;4978087;28;20054;-45
2023/06/03 08:26:45;;;;;;;2.55;1.13;;;19.50;41.30;;;;;;4978037;28;20053;-45
2023/06/03 08:29:12;;;;;;;8.15;1.63;;;19.50;41.10;;;;;;4976848;28;20566;-43
2023/06/03 08:31:40;;;;;;;4.57;1.30;;;19.60;41.10;;;;;;4976748;28;20054;-42
2023/06/03 08:34:10;;;;;;;3.35;1.35;;;19.60;41.10;;;;;;4979271;28;20050;-42
2023/06/03 08:36:38;;;;;;;5.07;1.23;;;19.70;41.20;;;;;;4979994;28;20050;-43
2023/06/03 08:39:07;;;;;;;2.17;1.23;;;19.70;41.10;;;;;;4975107;28;20061;-43
2023/06/03 08:41:38;;;;;;;2.40;1.50;;;19.80;41.10;;;;;;4974944;28;20455;-41
2023/06/03 08:44:14;;;;;;;2.42;1.40;;;19.90;41.20;;;;;;4979099;28;20422;-43
2023/06/03 08:46:48;;;;;;;3.75;1.38;;;19.90;40.90;;;;;;4975721;28;20387;-42
2023/06/03 08:49:23;;;;;;;4.35;1.30;;;19.90;41.00;;;;;;4972055;28;20421;-41
2023/06/03 08:51:55;;;;;;;3.08;1.55;;;20.00;40.90;;;;;;4977075;28;20065;-41
2023/06/03 08:54:29;;;;;;;6.00;1.90;;;20.10;40.80;;;;;;4971773;28;20846;-47
2023/06/03 08:57:06;;;;;;;3.58;1.38;;;20.10;40.90;;;;;;4977653;28;20057;-46
2023/06/03 08:59:38;;;;;;;2.55;1.42;;;20.20;40.90;;;;;;4972248;28;20061;-42
2023/06/03 09:02:06;;;;;;;4.30;1.70;;;20.30;40.90;;;;;;4970894;28;20062;-46
2023/06/03 09:04:34;;;;;;;4.75;1.77;;;20.30;40.90;;;;;;4974456;28;20796;-55
2023/06/03 09:07:03;;;;;;;3.85;1.60;;;20.40;40.50;;;;;;4975994;28;20058;-47
2023/06/03 09:09:32;;;;;;;3.28;1.88;;;20.40;40.20;;;;;;4972418;28;20069;-48
2023/06/03 09:12:00;;;;;;;5.70;1.80;;;20.50;40.10;;;;;;4976001;28;20058;-47
2023/06/03 09:14:29;;;;;;;2.80;1.38;;;20.50;40.00;;;;;;4976520;28;20050;-47
2023/06/03 09:16:59;;;;;;;2.92;1.50;;;20.60;39.90;;;;;;4973798;28;20494;-48
2023/06/03 09:19:27;;;;;;;3.08;1.63;;;20.60;39.90;;;;;;4975302;28;20058;-47
2023/06/03 09:21:56;;;;;;;2.63;1.35;;;20.70;39.90;;;;;;4972143;28;20055;-47
2023/06/03 09:24:24;;;;;;;7.85;1.90;;;20.70;39.80;;;;;;4975211;28;20352;-47
2023/06/03 09:26:51;;;;;;;5.53;2.03;;;20.70;39.80;;;;;;4975020;28;20061;-47
2023/06/03 09:29:20;;;;;;;3.08;1.73;;;20.80;39.80;;;;;;4973726;28;20050;-53
2023/06/03 09:31:48;;;;;;;3.25;1.55;;;20.80;39.50;;;;;;4967616;28;21164;-47
2023/06/03 09:34:17;;;;;;;2.30;1.42;;;20.90;39.40;;;;;;4971312;28;20069;-47
2023/06/03 09:36:46;;;;;;;4.78;1.98;;;20.90;39.30;;;;;;4974307;28;20153;-48
2023/06/03 09:39:16;;;;;;;6.63;1.63;;;20.90;39.10;;;;;;4976081;28;20061;-45
2023/06/03 09:41:44;;;;;;;9.68;2.17;;;21.00;39.10;;;;;;4972109;28;20050;-52
2023/06/03 09:44:11;;;;;;;5.53;1.80;;;21.00;38.90;;;;;;4973940;28;20077;-49
2023/06/03 09:46:39;;;;;;;3.20;1.88;;;21.10;38.70;;;;;;4974873;28;20522;-47
2023/06/03 09:49:10;;;;;;;3.53;1.98;;;21.10;39.00;;;;;;4976498;28;20054;-47
2023/06/03 09:51:42;;;;;;;4.40;2.00;;;21.20;38.80;;;;;;4970701;28;20051;-47
2023/06/03 09:54:14;;;;;;;5.28;2.10;;;21.20;38.80;;;;;;4975902;28;20058;-51
2023/06/03 09:56:42;;;;;;;3.60;1.85;;;21.20;38.90;;;;;;4975770;28;20050;-47
2023/06/03 09:59:14;;;;;;;7.68;2.03;;;21.30;38.90;;;;;;4974834;28;20062;-48
2023/06/03 10:01:42;;;;;;;4.43;2.22;;;21.30;38.30;;;;;;4975864;28;20054;-48
2023/06/03 10:04:09;;;;;;;4.65;1.98;;;21.40;38.20;;;;;;4979395;28;20050;-52
2023/06/03 10:06:38;;;;;;;5.38;2.17;;;21.40;38.00;;;;;;4975441;28;20069;-48
2023/06/03 10:09:20;;;;;;;4.15;1.90;;;21.40;37.80;;;;;;4977926;28;20058;-47
2023/06/03 10:11:48;;;;;;;4.45;2.00;;;21.50;38.00;;;;;;4975752;28;20062;-46
2023/06/03 10:14:17;;;;;;;4.97;2.17;;;21.50;37.90;;;;;;4981995;28;20502;-49
2023/06/03 10:17:06;;;;;;;5.10;1.70;;;21.60;38.00;;;;;;4978441;28;20053;-43
2023/06/03 10:19:35;;;;;;;3.58;1.95;;;21.60;38.20;;;;;;4979673;28;20050;-51
2023/06/03 10:22:03;;;;;;;6.10;2.22;;;21.60;38.00;;;;;;4980958;28;20054;-41
2023/06/03 10:24:34;;;;;;;3.83;1.73;;;21.70;37.40;;;;;;4979654;28;20053;-46
2023/06/03 10:27:02;;;;;;;4.00;1.70;;;21.70;37.10;;;;;;4981712;28;20065;-42
2023/06/03 10:29:30;;;;;;;3.88;1.33;;;21.80;37.20;;;;;;4980268;28;20076;-43
2023/06/03 10:32:00;;;;;;;4.28;1.85;;;21.80;37.40;;;;;;4978509;28;20050;-44
2023/06/03 10:34:29;;;;;;;4.15;1.80;;;21.90;37.20;;;;;;4973343;28;20062;-43
2023/06/03 10:37:01;;;;;;;3.33;2.03;;;21.90;37.00;;;;;;4976913;28;20050;-46
2023/06/03 10:39:30;;;;;;;5.15;2.20;;;21.90;37.10;;;;;;4975140;28;20058;-46
2023/06/03 10:42:01;;;;;;;4.75;1.60;;;21.90;36.80;;;;;;4976616;28;20058;-43
2023/06/03 10:44:29;;;;;;;4.10;1.60;;;22.00;37.00;;;;;;4980226;28;20054;-43
2023/06/03 10:47:00;;;;;;;5.60;1.85;;;22.00;36.80;;;;;;4979081;28;20050;-46
2023/06/03 10:49:32;;;;;;;4.45;2.13;;;22.00;36.90;;;;;;4975981;28;20151;-44
2023/06/03 10:52:23;;;;;;;6.57;2.20;;;22.10;36.90;;;;;;4981182;28;20469;-44
2023/06/03 10:55:02;;;;;;;3.00;1.63;;;22.10;36.60;;;;;;4978580;28;20065;-46
2023/06/03 10:57:42;;;;;;;3.58;1.80;;;22.10;36.70;;;;;;4980193;28;20084;-44
2023/06/03 11:00:10;;;;;;;8.75;2.40;;;22.20;36.80;;;;;;4979894;28;20058;-47
2023/06/03 11:03:05;;;;;;;4.00;1.60;;;22.20;36.60;;;;;;4975309;28;20065;-42
2023/06/03 11:05:32;;;;;;;2.05;1.45;;;22.20;35.90;;;;;;4976337;28;20469;-44
2023/06/03 11:08:00;;;;;;;4.13;1.70;;;22.30;36.40;;;;;;4976912;28;20061;-49
2023/06/03 11:10:40;;;;;;;5.35;2.08;;;22.30;36.50;;;;;;4978500;28;20054;-46
2023/06/03 11:13:11;;;;;;;4.60;1.85;;;22.30;36.40;;;;;;4978710;28;20054;-45
2023/06/03 11:15:57;;;;;;;4.43;1.85;;;22.30;36.20;;;;;;4978436;28;20057;-46
2023/06/03 11:18:25;;;;;;;6.13;2.00;;;22.40;36.40;;;;;;4974668;28;20050;-46
2023/06/03 11:20:52;;;;;;;9.18;2.00;;;22.40;36.50;;;;;;4979396;28;20521;-43
2023/06/03 11:23:40;;;;;;;3.17;1.73;;;22.40;36.50;;;;;;4974950;28;20061;-45
2023/06/03 11:26:33;;;;;;;3.13;1.75;;;22.50;36.10;;;;;;4980074;28;20149;-47
2023/06/03 11:29:03;;;;;;;6.43;2.25;;;22.50;36.10;;;;;;4976239;28;20054;-43
2023/06/03 11:31:32;;;;;;;3.72;1.70;;;22.60;36.00;;;;;;4974215;28;20501;-46
2023/06/03 11:34:21;;;;;;;3.88;1.75;;;22.60;35.90;;;;;;4980699;28;20046;-46
2023/06/03 11:36:50;;;;;;;3.85;2.20;;;22.60;35.50;;;;;;4975908;28;20066;-43
2023/06/03 11:39:17;;;;;;;4.28;1.88;;;22.60;35.50;;;;;;4981720;28;20058;-44
2023/06/03 11:42:05;;;;;;;4.68;2.03;;;22.60;35.40;;;;;;4978915;28;20065;-45
2023/06/03 11:44:34;;;;;;;3.75;2.22;;;22.70;35.30;;;;;;4979602;28;20058;-44
2023/06/03 11:47:01;;;;;;;3.63;2.00;;;22.70;34.10;;;;;;4977049;28;20054;-44
2023/06/03 11:49:28;;;;;;;3.80;1.77;;;22.70;34.60;;;;;;4979041;28;20057;-47
2023/06/03 11:52:00;;;;;;;2.63;1.65;;;22.70;35.00;;;;;;4978442;28;20054;-47
2023/06/03 11:54:28;;;;;;;2.17;1.65;;;22.70;35.00;;;;;;4976639;28;20054;-45
2023/06/03 11:56:57;;;;;;;5.93;1.85;;;22.80;35.20;;;;;;4975155;28;20046;-44
2023/06/03 11:59:30;;;;;;;8.38;1.92;;;22.80;35.30;;;;;;4976924;28;20054;-45
2023/06/03 12:02:01;;;;;;;3.55;1.60;;;22.90;34.50;;;;;;4977785;28;20070;-44
2023/06/03 12:04:28;;;;;;;4.55;1.75;;;22.90;35.20;;;;;;4981513;28;20116;-42
2023/06/03 12:06:56;;;;;;;4.70;1.70;;;22.90;35.20;;;;;;4977895;28;20581;-46
2023/06/03 12:09:25;;;;;;;4.93;2.00;;;22.90;35.00;;;;;;4978188;28;20051;-46
2023/06/03 12:11:52;;;;;;;6.95;2.03;;;23.00;35.10;;;;;;4979020;28;20405;-45
2023/06/03 12:14:27;;;;;;;2.65;1.90;;;23.00;34.70;;;;;;4977316;28;20088;-47
2023/06/03 12:16:56;;;;;;;3.38;2.00;;;23.00;33.90;;;;;;4981056;28;20069;-44
2023/06/03 12:19:25;;;;;;;4.60;1.92;;;23.10;34.30;;;;;;4978640;28;21420;-46
2023/06/03 12:21:58;;;;;;;3.10;1.65;;;23.10;34.30;;;;;;4978179;28;20054;-48
2023/06/03 12:24:30;;;;;;;5.03;1.80;;;23.10;34.10;;;;;;4976038;28;20050;-45
2023/06/03 12:26:57;;;;;;;4.70;1.70;;;23.10;34.30;;;;;;4976488;28;20394;-44
2023/06/03 12:29:25;;;;;;;6.60;1.83;;;23.20;34.70;;;;;;4975297;28;20058;-43
2023/06/03 12:31:59;;;;;;;11.13;2.13;;;23.20;34.50;;;;;;4980068;28;20474;-47
2023/06/03 12:34:33;;;;;;;4.35;1.92;;;23.20;34.20;;;;;;4979516;28;20597;-45
2023/06/03 12:37:01;;;;;;;4.60;2.10;;;23.20;34.10;;;;;;4974322;28;20053;-44
2023/06/03 12:39:50;;;;;;;7.63;1.90;;;23.30;34.40;;;;;;4977198;28;20062;-44
2023/06/03 12:42:19;;;;;;;3.65;1.52;;;23.30;34.00;;;;;;4970939;28;20464;-48
2023/06/03 12:44:48;;;;;;;3.20;1.98;;;23.30;34.30;;;;;;4977085;28;20050;-47
2023/06/03 12:47:16;;;;;;;3.92;2.05;;;23.30;34.00;;;;;;4971802;28;20050;-47
2023/06/03 12:49:46;;;;;;;3.35;2.03;;;23.30;34.10;;;;;;4973173;28;20050;-46
2023/06/03 12:52:15;;;;;;;5.43;2.63;;;23.40;34.00;;;;;;4977820;28;20058;-48
2023/06/03 12:54:44;;;;;;;4.35;2.20;;;23.40;33.40;;;;;;4974223;28;20065;-46
2023/06/03 12:57:12;;;;;;;3.40;1.85;;;23.40;33.60;;;;;;4978926;28;20434;-46
2023/06/03 12:59:58;;;;;;;8.13;2.30;;;23.50;33.80;;;;;;4979518;28;20058;-47